createdAt,value
2022-12-14T00:00:28.522Z,-1.14
2022-12-14T00:01:28.668Z,-1.16
2022-12-14T00:02:28.936Z,-1.14
2022-12-14T00:03:29.187Z,-1.19
2022-12-14T00:04:29.174Z,-1.16
2022-12-14T00:05:29.352Z,-1.19
2022-12-14T00:06:29.503Z,-1.14
2022-12-14T00:07:29.677Z,-1.19
2022-12-14T00:08:30.118Z,-1.19
2022-12-14T00:09:30.004Z,-1.16
2022-12-14T00:10:30.183Z,-1.14
2022-12-14T00:11:30.348Z,-1.19
2022-12-14T00:12:30.503Z,-1.19
2022-12-14T00:13:30.683Z,-1.16
2022-12-14T00:14:30.837Z,-1.16
2022-12-14T00:15:31.105Z,-1.22
2022-12-14T00:16:31.202Z,-1.25
2022-12-14T00:17:31.365Z,-1.20
2022-12-14T00:18:31.514Z,-1.20
2022-12-14T00:19:31.689Z,-1.19
2022-12-14T00:20:31.891Z,-1.19
2022-12-14T00:21:32.014Z,-1.25
2022-12-14T00:22:32.177Z,-1.25
2022-12-14T00:23:37.220Z,-1.25
2022-12-14T00:24:33.566Z,-1.22
2022-12-14T00:25:32.719Z,-1.28
2022-12-14T00:26:32.874Z,-1.26
2022-12-14T00:27:33.035Z,-1.23
2022-12-14T00:28:33.198Z,-1.22
2022-12-14T00:29:33.400Z,-1.30
2022-12-14T00:30:33.617Z,-1.29
2022-12-14T00:31:33.767Z,-1.32
2022-12-14T00:32:33.926Z,-1.28
2022-12-14T00:33:34.096Z,-1.26
2022-12-14T00:34:34.257Z,-1.28
2022-12-14T00:35:34.458Z,-1.29
2022-12-14T00:36:34.611Z,-1.32
2022-12-14T00:37:34.781Z,-1.30
2022-12-14T00:38:34.940Z,-1.33
2022-12-14T00:39:35.116Z,-1.30
2022-12-14T00:40:35.292Z,-1.33
2022-12-14T00:41:35.452Z,-1.29
2022-12-14T00:42:35.612Z,-1.33
2022-12-14T00:43:35.783Z,-1.36
2022-12-14T00:44:35.966Z,-1.37
2022-12-14T00:45:36.126Z,-1.38
2022-12-14T00:46:36.322Z,-1.33
2022-12-14T00:47:40.709Z,-1.36
2022-12-14T00:48:36.658Z,-1.40
2022-12-14T00:49:36.956Z,-1.41
2022-12-14T00:50:37.008Z,-1.38
2022-12-14T00:51:37.179Z,-1.37
2022-12-14T00:52:37.345Z,-1.40
2022-12-14T00:53:37.508Z,-1.41
2022-12-14T00:54:37.688Z,-1.43
2022-12-14T00:55:37.847Z,-1.43
2022-12-14T00:56:38.013Z,-1.47
2022-12-14T00:57:38.184Z,-1.47
2022-12-14T00:58:38.350Z,-1.43
2022-12-14T00:59:38.534Z,-1.48
2022-12-14T01:00:38.690Z,-1.47
2022-12-14T01:01:38.909Z,-1.41
2022-12-14T01:02:39.066Z,-1.48
2022-12-14T01:03:39.230Z,-1.47
2022-12-14T01:04:39.390Z,-1.52
2022-12-14T01:05:39.551Z,-1.49
2022-12-14T01:06:39.714Z,-1.52
2022-12-14T01:07:39.888Z,-1.49
2022-12-14T01:08:40.040Z,-1.52
2022-12-14T01:09:40.228Z,-1.56
2022-12-14T01:10:40.407Z,-1.59
2022-12-14T01:11:40.560Z,-1.55
2022-12-14T01:12:40.715Z,-1.57
2022-12-14T01:13:40.880Z,-1.56
2022-12-14T01:14:41.185Z,-1.60
2022-12-14T01:15:41.304Z,-1.57
2022-12-14T01:16:41.403Z,-1.57
2022-12-14T01:17:41.573Z,-1.62
2022-12-14T01:18:41.735Z,-1.60
2022-12-14T01:19:41.918Z,-1.65
2022-12-14T01:20:42.076Z,-1.60
2022-12-14T01:21:42.241Z,-1.63
2022-12-14T01:22:42.407Z,-1.63
2022-12-14T01:23:42.580Z,-1.65
2022-12-14T01:24:42.763Z,-1.63
2022-12-14T01:25:42.923Z,-1.60
2022-12-14T01:26:43.073Z,-1.67
2022-12-14T01:27:43.247Z,-1.62
2022-12-14T01:28:43.397Z,-1.66
2022-12-14T01:29:43.583Z,-1.60
2022-12-14T01:30:43.749Z,-1.67
2022-12-14T01:31:43.912Z,-1.66
2022-12-14T01:32:44.093Z,-1.72
2022-12-14T01:33:44.272Z,-1.63
2022-12-14T01:34:44.462Z,-1.70
2022-12-14T01:35:44.614Z,-1.65
2022-12-14T01:36:44.761Z,-1.70
2022-12-14T01:37:44.925Z,-1.66
2022-12-14T01:38:45.082Z,-1.66
2022-12-14T01:39:45.297Z,-1.69
2022-12-14T01:40:45.416Z,-1.70
2022-12-14T01:41:45.579Z,-1.69
2022-12-14T01:42:45.744Z,-1.72
2022-12-14T01:43:45.922Z,-1.69
2022-12-14T01:44:46.115Z,-1.74
2022-12-14T01:45:46.275Z,-1.74
2022-12-14T01:46:46.463Z,-1.74
2022-12-14T01:47:46.607Z,-1.75
2022-12-14T01:48:46.763Z,-1.75
2022-12-14T01:49:47.335Z,-1.70
2022-12-14T01:50:47.105Z,-1.78
2022-12-14T01:51:47.270Z,-1.75
2022-12-14T01:52:47.431Z,-1.70
2022-12-14T01:53:47.595Z,-1.80
2022-12-14T01:54:48.982Z,-1.78
2022-12-14T01:55:48.928Z,-1.74
2022-12-14T01:56:48.105Z,-1.77
2022-12-14T01:57:48.265Z,-1.78
2022-12-14T01:58:48.417Z,-1.80
2022-12-14T01:59:48.586Z,-1.81
2022-12-14T02:00:48.761Z,-1.77
2022-12-14T02:01:49.059Z,-1.83
2022-12-14T02:02:49.174Z,-1.84
2022-12-14T02:03:49.330Z,-1.80
2022-12-14T02:04:49.489Z,-1.85
2022-12-14T02:05:49.646Z,-1.81
2022-12-14T02:06:49.807Z,-1.81
2022-12-14T02:07:49.982Z,-1.85
2022-12-14T02:08:50.137Z,-1.85
2022-12-14T02:09:50.328Z,-1.85
2022-12-14T02:10:50.485Z,-1.85
2022-12-14T02:11:50.649Z,-1.85
2022-12-14T02:12:50.820Z,-1.88
2022-12-14T02:13:50.992Z,-1.87
2022-12-14T02:14:51.173Z,-1.88
2022-12-14T02:15:51.391Z,-1.87
2022-12-14T02:16:51.515Z,-1.88
2022-12-14T02:17:51.679Z,-1.92
2022-12-14T02:18:51.843Z,-1.85
2022-12-14T02:19:52.027Z,-1.90
2022-12-14T02:20:52.175Z,-1.87
2022-12-14T02:21:52.339Z,-1.88
2022-12-14T02:22:52.500Z,-1.95
2022-12-14T02:23:52.680Z,-1.93
2022-12-14T02:24:52.854Z,-1.88
2022-12-14T02:25:53.012Z,-1.92
2022-12-14T02:26:53.178Z,-1.95
2022-12-14T02:27:53.344Z,-1.95
2022-12-14T02:28:53.521Z,-1.93
2022-12-14T02:29:53.690Z,-1.88
2022-12-14T02:30:53.840Z,-1.92
2022-12-14T02:31:54.015Z,-1.88
2022-12-14T02:32:54.179Z,-1.92
2022-12-14T02:33:54.338Z,-1.99
2022-12-14T02:34:54.500Z,-1.99
2022-12-14T02:35:54.688Z,-1.96
2022-12-14T02:36:54.840Z,-1.96
2022-12-14T02:37:55.024Z,-2.02
2022-12-14T02:38:55.184Z,-1.99
2022-12-14T02:39:55.351Z,-2.03
2022-12-14T02:40:55.531Z,-2.02
2022-12-14T02:41:55.701Z,-2.06
2022-12-14T02:42:55.869Z,-2.02
2022-12-14T02:43:56.041Z,-2.03
2022-12-14T02:44:56.210Z,-2.03
2022-12-14T02:45:56.391Z,-2.01
2022-12-14T02:46:56.613Z,-2.01
2022-12-14T02:47:56.749Z,-2.08
2022-12-14T02:48:56.918Z,-2.05
2022-12-14T02:49:57.093Z,-2.12
2022-12-14T02:50:57.281Z,-2.06
2022-12-14T02:51:57.443Z,-2.08
2022-12-14T02:52:57.619Z,-2.08
2022-12-14T02:53:57.796Z,-2.09
2022-12-14T02:54:57.965Z,-2.13
2022-12-14T02:55:58.157Z,-2.16
2022-12-14T02:56:58.315Z,-2.14
2022-12-14T02:57:58.503Z,-2.12
2022-12-14T02:58:58.671Z,-2.13
2022-12-14T02:59:58.844Z,-2.14
2022-12-14T03:00:59.060Z,-2.19
2022-12-14T03:01:59.363Z,-2.19
2022-12-14T03:02:59.384Z,-2.13
2022-12-14T03:03:59.524Z,-2.17
2022-12-14T03:04:59.680Z,-2.19
2022-12-14T03:05:59.854Z,-2.14
2022-12-14T03:07:00.054Z,-2.13
2022-12-14T03:08:00.185Z,-2.14
2022-12-14T03:09:00.363Z,-2.17
2022-12-14T03:10:00.538Z,-2.14
2022-12-14T03:11:00.695Z,-2.12
2022-12-14T03:12:00.888Z,-2.17
2022-12-14T03:13:01.066Z,-2.23
2022-12-14T03:14:01.229Z,-2.13
2022-12-14T03:15:01.415Z,-2.13
2022-12-14T03:16:01.653Z,-2.13
2022-12-14T03:17:01.756Z,-2.20
2022-12-14T03:18:01.938Z,-2.19
2022-12-14T03:19:02.096Z,-2.14
2022-12-14T03:20:02.274Z,-2.20
2022-12-14T03:22:17.530Z,-2.24
2022-12-14T03:23:17.700Z,-2.26
2022-12-14T03:24:17.874Z,-2.35
2022-12-14T03:25:18.039Z,-2.35
2022-12-14T03:26:18.212Z,-2.31
2022-12-14T03:27:18.621Z,-2.31
2022-12-14T03:28:18.545Z,-2.35
2022-12-14T03:29:18.728Z,-2.26
2022-12-14T03:30:43.879Z,-2.27
2022-12-14T03:31:20.090Z,-2.30
2022-12-14T03:32:19.240Z,-2.26
2022-12-14T03:33:19.429Z,-2.30
2022-12-14T03:34:19.551Z,-2.24
2022-12-14T03:35:19.734Z,-2.24
2022-12-14T03:36:19.901Z,-2.27
2022-12-14T03:37:20.246Z,-2.26
2022-12-14T03:38:20.261Z,-2.27
2022-12-14T03:39:20.429Z,-2.27
2022-12-14T03:40:20.590Z,-2.30
2022-12-14T03:41:20.774Z,-2.21
2022-12-14T03:42:20.927Z,-2.24
2022-12-14T03:43:21.119Z,-2.26
2022-12-14T03:44:21.280Z,-2.24
2022-12-14T03:45:21.456Z,-2.26
2022-12-14T03:46:21.618Z,-2.30
2022-12-14T03:47:21.792Z,-2.27
2022-12-14T03:48:21.992Z,-2.27
2022-12-14T03:49:22.123Z,-2.24
2022-12-14T03:50:22.285Z,-2.24
2022-12-14T03:51:22.452Z,-2.23
2022-12-14T03:52:22.618Z,-2.20
2022-12-14T03:53:22.805Z,-2.24
2022-12-14T03:54:22.987Z,-2.23
2022-12-14T03:55:23.142Z,-2.24
2022-12-14T03:56:23.313Z,-2.31
2022-12-14T03:57:23.479Z,-2.27
2022-12-14T03:58:23.684Z,-2.31
2022-12-14T03:59:23.812Z,-2.30
2022-12-14T04:00:23.973Z,-2.24
2022-12-14T04:01:24.326Z,-2.26
2022-12-14T04:02:24.396Z,-2.34
2022-12-14T04:03:24.687Z,-2.31
2022-12-14T04:04:24.694Z,-2.26
2022-12-14T04:05:24.859Z,-2.30
2022-12-14T04:06:25.014Z,-2.34
2022-12-14T04:07:25.184Z,-2.32
2022-12-14T04:08:25.361Z,-2.31
2022-12-14T04:09:25.548Z,-2.30
2022-12-14T04:10:25.698Z,-2.27
2022-12-14T04:11:25.878Z,-2.30
2022-12-14T04:12:26.038Z,-2.30
2022-12-14T04:13:26.527Z,-2.31
2022-12-14T04:14:26.403Z,-2.31
2022-12-14T04:15:26.594Z,-2.24
2022-12-14T04:16:26.755Z,-2.24
2022-12-14T04:17:26.904Z,-2.30
2022-12-14T04:18:27.087Z,-2.24
2022-12-14T04:19:27.276Z,-2.31
2022-12-14T04:20:27.434Z,-2.20
2022-12-14T04:21:27.613Z,-2.27
2022-12-14T04:22:27.782Z,-2.31
2022-12-14T04:23:28.408Z,-2.24
2022-12-14T04:24:28.136Z,-2.26
2022-12-14T04:25:28.296Z,-2.34
2022-12-14T04:26:28.460Z,-2.27
2022-12-14T04:27:28.636Z,-2.35
2022-12-14T04:28:28.802Z,-2.34
2022-12-14T04:29:28.987Z,-2.27
2022-12-14T04:30:29.147Z,-2.26
2022-12-14T04:31:29.411Z,-2.30
2022-12-14T04:32:29.569Z,-2.32
2022-12-14T04:33:30.173Z,-2.31
2022-12-14T04:34:29.846Z,-2.37
2022-12-14T04:35:30.029Z,-2.35
2022-12-14T04:36:30.199Z,-2.34
2022-12-14T04:37:30.364Z,-2.38
2022-12-14T04:38:30.541Z,-2.39
2022-12-14T04:39:30.714Z,-2.38
2022-12-14T04:40:30.877Z,-2.32
2022-12-14T04:41:31.077Z,-2.38
2022-12-14T04:42:31.232Z,-2.35
2022-12-14T04:43:31.579Z,-2.34
2022-12-14T04:44:31.565Z,-2.35
2022-12-14T04:45:31.804Z,-2.37
2022-12-14T04:46:34.161Z,-2.37
2022-12-14T04:47:32.096Z,-2.34
2022-12-14T04:48:32.258Z,-2.35
2022-12-14T04:49:32.449Z,-2.38
2022-12-14T04:50:32.607Z,-2.37
2022-12-14T04:51:32.805Z,-2.39
2022-12-14T04:52:32.953Z,-2.45
2022-12-14T04:53:33.139Z,-2.42
2022-12-14T04:54:33.303Z,-2.42
2022-12-14T04:55:33.503Z,-2.39
2022-12-14T04:56:33.659Z,-2.44
2022-12-14T04:57:33.845Z,-2.44
2022-12-14T04:58:33.998Z,-2.39
2022-12-14T04:59:34.181Z,-2.44
2022-12-14T05:00:34.346Z,-2.42
2022-12-14T05:01:34.602Z,-2.44
2022-12-14T05:02:34.783Z,-2.45
2022-12-14T05:03:34.879Z,-2.44
2022-12-14T05:04:35.051Z,-2.44
2022-12-14T05:05:35.217Z,-2.41
2022-12-14T05:06:35.378Z,-2.42
2022-12-14T05:07:35.600Z,-2.47
2022-12-14T05:08:35.723Z,-2.41
2022-12-14T05:09:35.934Z,-2.42
2022-12-14T05:10:36.100Z,-2.41
2022-12-14T05:12:37.465Z,-2.45
2022-12-14T05:13:36.619Z,-2.45
2022-12-14T05:14:36.779Z,-2.44
2022-12-14T05:15:36.967Z,-2.45
2022-12-14T05:16:37.205Z,-2.44
2022-12-14T05:17:37.317Z,-2.47
2022-12-14T05:18:37.510Z,-2.44
2022-12-14T05:19:37.670Z,-2.42
2022-12-14T05:20:37.839Z,-2.47
2022-12-14T05:21:38.009Z,-2.50
2022-12-14T05:22:38.181Z,-2.47
2022-12-14T05:23:38.400Z,-2.52
2022-12-14T05:24:38.539Z,-2.55
2022-12-14T05:25:38.700Z,-2.47
2022-12-14T05:26:38.875Z,-2.45
2022-12-14T05:27:39.043Z,-2.52
2022-12-14T05:28:39.240Z,-2.49
2022-12-14T05:29:39.408Z,-2.50
2022-12-14T05:30:39.586Z,-2.50
2022-12-14T05:31:39.751Z,-2.50
2022-12-14T05:32:39.915Z,-2.52
2022-12-14T05:33:40.105Z,-2.56
2022-12-14T05:34:40.283Z,-2.55
2022-12-14T05:35:40.431Z,-2.55
2022-12-14T05:36:40.611Z,-2.58
2022-12-14T05:37:40.783Z,-2.50
2022-12-14T05:38:40.942Z,-2.59
2022-12-14T05:39:41.137Z,-2.53
2022-12-14T05:40:41.299Z,-2.56
2022-12-14T05:41:41.473Z,-2.59
2022-12-14T05:42:45.396Z,-2.58
2022-12-14T05:43:42.857Z,-2.56
2022-12-14T05:44:41.992Z,-2.58
2022-12-14T05:45:42.195Z,-2.59
2022-12-14T05:46:42.344Z,-2.58
2022-12-14T05:47:42.527Z,-2.59
2022-12-14T05:48:46.120Z,-2.60
2022-12-14T05:49:43.890Z,-2.63
2022-12-14T05:50:43.034Z,-2.67
2022-12-14T05:51:43.202Z,-2.62
2022-12-14T05:52:43.372Z,-2.58
2022-12-14T05:53:43.545Z,-2.65
2022-12-14T05:54:43.726Z,-2.58
2022-12-14T05:55:43.895Z,-2.67
2022-12-14T05:56:44.055Z,-2.67
2022-12-14T05:57:44.232Z,-2.70
2022-12-14T05:58:44.415Z,-2.68
2022-12-14T05:59:44.586Z,-2.67
2022-12-14T06:00:44.746Z,-2.67
2022-12-14T06:01:44.976Z,-2.65
2022-12-14T06:02:46.150Z,-2.74
2022-12-14T06:03:45.285Z,-2.71
2022-12-14T06:04:45.503Z,-2.71
2022-12-14T06:05:45.627Z,-2.71
2022-12-14T06:06:45.797Z,-2.70
2022-12-14T06:07:45.973Z,-2.71
2022-12-14T06:08:46.142Z,-2.70
2022-12-14T06:09:46.346Z,-2.68
2022-12-14T06:10:46.472Z,-2.70
2022-12-14T06:11:46.647Z,-2.74
2022-12-14T06:12:46.809Z,-2.76
2022-12-14T06:13:47.006Z,-2.73
2022-12-14T06:14:47.194Z,-2.74
2022-12-14T06:15:47.349Z,-2.74
2022-12-14T06:16:47.487Z,-2.68
2022-12-14T06:17:47.658Z,-2.68
2022-12-14T06:18:47.830Z,-2.74
2022-12-14T06:19:50.053Z,-2.76
2022-12-14T06:20:48.155Z,-2.70
2022-12-14T06:21:48.334Z,-2.71
2022-12-14T06:22:48.513Z,-2.74
2022-12-14T06:23:48.685Z,-2.77
2022-12-14T06:24:48.857Z,-2.77
2022-12-14T06:25:49.019Z,-2.74
2022-12-14T06:26:49.175Z,-2.76
2022-12-14T06:27:49.346Z,-2.77
2022-12-14T06:28:49.515Z,-2.73
2022-12-14T06:29:49.699Z,-2.71
2022-12-14T06:30:49.899Z,-2.74
2022-12-14T06:31:50.057Z,-2.80
2022-12-14T06:32:50.218Z,-2.80
2022-12-14T06:33:50.387Z,-2.80
2022-12-14T06:34:50.576Z,-2.78
2022-12-14T06:35:50.742Z,-2.77
2022-12-14T06:36:50.904Z,-2.77
2022-12-14T06:37:51.080Z,-2.80
2022-12-14T06:38:51.236Z,-2.78
2022-12-14T06:39:54.413Z,-2.80
2022-12-14T06:40:51.613Z,-2.80
2022-12-14T06:41:51.807Z,-2.90
2022-12-14T06:42:51.927Z,-2.81
2022-12-14T06:43:52.107Z,-2.85
2022-12-14T06:44:52.282Z,-2.85
2022-12-14T06:45:52.472Z,-2.81
2022-12-14T06:46:52.659Z,-2.81
2022-12-14T06:47:52.793Z,-2.85
2022-12-14T06:48:52.959Z,-2.85
2022-12-14T06:49:53.149Z,-2.81
2022-12-14T06:50:53.308Z,-2.86
2022-12-14T06:51:53.488Z,-2.81
2022-12-14T06:52:53.649Z,-2.81
2022-12-14T06:53:53.823Z,-2.80
2022-12-14T06:54:54.028Z,-2.90
2022-12-14T06:55:54.159Z,-2.81
2022-12-14T06:56:54.326Z,-2.85
2022-12-14T06:57:54.497Z,-2.83
2022-12-14T06:58:54.659Z,-2.83
2022-12-14T06:59:54.857Z,-2.80
2022-12-14T07:00:55.028Z,-2.83
2022-12-14T07:01:55.263Z,-2.78
2022-12-14T07:02:55.471Z,-2.83
2022-12-14T07:03:55.803Z,-2.80
2022-12-14T07:04:55.728Z,-2.77
2022-12-14T07:05:55.921Z,-2.83
2022-12-14T07:06:56.104Z,-2.80
2022-12-14T07:07:56.280Z,-2.81
2022-12-14T07:08:56.478Z,-2.85
2022-12-14T07:09:56.628Z,-2.83
2022-12-14T07:11:02.136Z,-2.89
2022-12-14T07:11:58.020Z,-2.86
2022-12-14T07:12:57.170Z,-2.86
2022-12-14T07:13:57.393Z,-2.89
2022-12-14T07:14:57.534Z,-2.83
2022-12-14T07:15:57.801Z,-2.89
2022-12-14T07:16:57.890Z,-2.89
2022-12-14T07:17:58.071Z,-2.92
2022-12-14T07:18:58.270Z,-2.92
2022-12-14T07:19:58.415Z,-2.89
2022-12-14T07:20:58.594Z,-2.96
2022-12-14T07:21:58.778Z,-2.92
2022-12-14T07:22:58.970Z,-2.92
2022-12-14T07:23:59.160Z,-2.89
2022-12-14T07:24:59.310Z,-2.93
2022-12-14T07:25:59.495Z,-2.90
2022-12-14T07:26:59.675Z,-2.90
2022-12-14T07:27:59.863Z,-2.90
2022-12-14T07:29:00.063Z,-2.92
2022-12-14T07:30:00.232Z,-2.92
2022-12-14T07:31:00.459Z,-2.92
2022-12-14T07:32:00.581Z,-2.83
2022-12-14T07:33:00.768Z,-2.90
2022-12-14T07:34:00.968Z,-2.86
2022-12-14T07:35:01.137Z,-2.86
2022-12-14T07:36:01.302Z,-2.89
2022-12-14T07:37:01.430Z,-2.85
2022-12-14T07:38:01.620Z,-2.83
2022-12-14T07:39:01.811Z,-2.83
2022-12-14T07:40:01.962Z,-2.81
2022-12-14T07:41:02.148Z,-2.83
2022-12-14T07:42:02.331Z,-2.81
2022-12-14T07:43:02.521Z,-2.83
2022-12-14T07:44:02.752Z,-2.83
2022-12-14T07:45:02.833Z,-2.89
2022-12-14T07:46:03.098Z,-2.85
2022-12-14T07:47:03.175Z,-2.78
2022-12-14T07:48:03.323Z,-2.89
2022-12-14T07:49:03.532Z,-2.86
2022-12-14T07:50:03.661Z,-2.77
2022-12-14T07:51:03.823Z,-2.80
2022-12-14T07:52:03.983Z,-2.78
2022-12-14T07:53:04.175Z,-2.77
2022-12-14T07:54:04.344Z,-2.74
2022-12-14T07:55:04.491Z,-2.76
2022-12-14T07:56:04.737Z,-2.73
2022-12-14T07:57:04.834Z,-2.73
2022-12-14T07:58:05.013Z,-2.71
2022-12-14T07:59:05.443Z,-2.71
2022-12-14T08:00:05.363Z,-2.62
2022-12-14T08:01:05.549Z,-2.58
2022-12-14T08:02:05.777Z,-2.56
2022-12-14T08:03:05.870Z,-2.55
2022-12-14T08:04:06.107Z,-2.52
2022-12-14T08:05:12.131Z,-2.53
2022-12-14T08:06:07.343Z,-2.45
2022-12-14T08:07:06.518Z,-2.39
2022-12-14T08:08:06.694Z,-2.35
2022-12-14T08:09:06.923Z,-2.38
2022-12-14T08:10:07.036Z,-2.34
2022-12-14T08:11:07.223Z,-2.35
2022-12-14T08:12:07.385Z,-2.34
2022-12-14T08:13:07.573Z,-2.30
2022-12-14T08:14:07.764Z,-2.26
2022-12-14T08:15:07.953Z,-2.21
2022-12-14T08:16:08.293Z,-1.98
2022-12-14T08:17:08.268Z,-1.85
2022-12-14T08:18:08.418Z,-1.70
2022-12-14T08:19:08.597Z,-1.57
2022-12-14T08:20:08.796Z,-1.41
2022-12-14T08:21:08.969Z,-1.33
2022-12-14T08:22:09.128Z,-1.20
2022-12-14T08:23:09.281Z,-1.08
2022-12-14T08:24:09.459Z,-0.96
2022-12-14T08:25:09.658Z,-0.87
2022-12-14T08:26:09.807Z,-0.80
2022-12-14T08:27:09.989Z,-0.68
2022-12-14T08:28:10.162Z,-0.61
2022-12-14T08:29:10.341Z,-0.53
2022-12-14T08:30:10.541Z,-0.44
2022-12-14T08:31:10.735Z,-0.36
2022-12-14T08:32:10.852Z,-0.15
2022-12-14T08:33:11.029Z,0.07
2022-12-14T08:34:11.209Z,0.36
2022-12-14T08:35:11.374Z,0.58
2022-12-14T08:36:11.519Z,0.83
2022-12-14T08:37:11.706Z,1.02
2022-12-14T08:38:11.874Z,1.34
2022-12-14T08:39:12.039Z,1.49
2022-12-14T08:40:12.221Z,1.67
2022-12-14T08:41:12.409Z,1.78
2022-12-14T08:42:12.561Z,1.96
2022-12-14T08:43:12.739Z,2.02
2022-12-14T08:44:12.929Z,2.11
2022-12-14T08:45:13.108Z,2.24
2022-12-14T08:46:13.357Z,2.29
2022-12-14T08:47:13.434Z,2.32
2022-12-14T08:48:13.612Z,2.38
2022-12-14T08:49:13.779Z,2.47
2022-12-14T08:50:13.959Z,2.57
2022-12-14T08:51:14.102Z,2.65
2022-12-14T08:52:14.291Z,2.67
2022-12-14T08:53:14.459Z,2.69
2022-12-14T08:54:14.649Z,2.67
2022-12-14T08:55:14.839Z,2.68
2022-12-14T08:56:14.976Z,2.71
2022-12-14T08:57:15.149Z,2.65
2022-12-14T08:58:15.338Z,2.68
2022-12-14T08:59:36.590Z,2.65
2022-12-14T09:00:16.752Z,2.61
2022-12-14T09:01:16.065Z,2.56
2022-12-14T09:02:16.157Z,2.57
2022-12-14T09:03:16.271Z,2.49
2022-12-14T09:04:16.391Z,2.46
2022-12-14T09:05:16.583Z,2.42
2022-12-14T09:06:16.740Z,2.42
2022-12-14T09:07:16.915Z,2.38
2022-12-14T09:08:17.086Z,2.36
2022-12-14T09:09:17.278Z,2.36
2022-12-14T09:10:17.480Z,2.38
2022-12-14T09:11:17.623Z,2.34
2022-12-14T09:12:17.794Z,2.36
2022-12-14T09:13:17.982Z,2.35
2022-12-14T09:14:18.152Z,2.36
2022-12-14T09:15:18.367Z,2.42
2022-12-14T09:16:18.595Z,2.51
2022-12-14T09:17:18.673Z,2.62
2022-12-14T09:18:18.887Z,2.79
2022-12-14T09:19:19.064Z,2.99
2022-12-14T09:20:19.200Z,3.11
2022-12-14T09:21:19.385Z,3.17
2022-12-14T09:23:34.742Z,3.23
2022-12-14T09:24:34.801Z,3.27
2022-12-14T09:25:35.024Z,3.26
2022-12-14T09:26:35.144Z,3.27
2022-12-14T09:27:35.351Z,3.32
2022-12-14T09:28:35.504Z,3.27
2022-12-14T09:29:35.690Z,3.26
2022-12-14T09:30:35.904Z,3.29
2022-12-14T09:31:36.053Z,3.30
2022-12-14T09:32:36.186Z,3.29
2022-12-14T09:33:36.388Z,3.32
2022-12-14T09:34:36.553Z,3.30
2022-12-14T09:35:36.759Z,3.29
2022-12-14T09:36:36.904Z,3.27
2022-12-14T09:37:37.109Z,3.30
2022-12-14T09:38:37.289Z,3.26
2022-12-14T09:39:37.455Z,3.32
2022-12-14T09:40:37.645Z,3.32
2022-12-14T09:41:37.787Z,3.38
2022-12-14T09:42:37.972Z,3.37
2022-12-14T09:43:38.530Z,3.44
2022-12-14T09:44:38.330Z,3.44
2022-12-14T09:45:38.635Z,3.49
2022-12-14T09:46:38.684Z,3.56
2022-12-14T09:47:38.858Z,3.65
2022-12-14T09:48:39.991Z,3.66
2022-12-14T09:49:39.220Z,3.70
2022-12-14T09:50:39.418Z,3.70
2022-12-14T09:51:39.610Z,3.77
2022-12-14T09:52:39.750Z,3.85
2022-12-14T09:53:39.930Z,3.93
2022-12-14T09:54:40.113Z,3.99
2022-12-14T09:55:40.316Z,4.05
2022-12-14T09:56:40.458Z,4.08
2022-12-14T09:57:40.651Z,4.11
2022-12-14T09:58:40.824Z,4.11
2022-12-14T09:59:41.005Z,4.16
2022-12-14T10:00:41.179Z,4.24
2022-12-14T10:01:43.580Z,4.28
2022-12-14T10:02:41.739Z,4.27
2022-12-14T10:03:41.934Z,4.30
2022-12-14T10:04:42.051Z,4.38
2022-12-14T10:05:42.019Z,4.40
2022-12-14T10:06:42.166Z,4.43
2022-12-14T10:07:42.336Z,4.46
2022-12-14T10:08:42.506Z,4.45
2022-12-14T10:09:42.681Z,4.46
2022-12-14T10:10:42.852Z,4.46
2022-12-14T10:11:43.047Z,4.53
2022-12-14T10:12:43.193Z,4.48
2022-12-14T10:13:43.371Z,4.50
2022-12-14T10:14:44.571Z,4.54
2022-12-14T10:15:43.732Z,4.55
2022-12-14T10:16:49.960Z,4.55
2022-12-14T10:17:45.081Z,4.54
2022-12-14T10:19:01.693Z,4.54
2022-12-14T10:19:45.455Z,4.61
2022-12-14T10:20:44.602Z,4.60
2022-12-14T10:21:44.795Z,4.63
2022-12-14T10:22:44.936Z,4.60
2022-12-14T10:23:45.125Z,4.55
2022-12-14T10:24:45.282Z,4.50
2022-12-14T10:25:45.445Z,4.53
2022-12-14T10:26:45.624Z,4.48
2022-12-14T10:28:09.720Z,4.58
2022-12-14T10:28:47.002Z,4.54
2022-12-14T10:29:46.149Z,4.58
2022-12-14T10:30:46.326Z,4.64
2022-12-14T10:31:46.577Z,4.69
2022-12-14T10:32:46.709Z,4.73
2022-12-14T10:33:46.875Z,4.81
2022-12-14T10:34:47.051Z,4.83
2022-12-14T10:35:47.277Z,4.89
2022-12-14T10:36:47.400Z,4.94
2022-12-14T10:37:47.588Z,4.96
2022-12-14T10:38:49.160Z,5.00
2022-12-14T10:39:49.658Z,5.05
2022-12-14T10:40:49.331Z,5.04
2022-12-14T10:41:49.784Z,5.04
2022-12-14T10:42:49.373Z,5.08
2022-12-14T10:43:48.625Z,5.05
2022-12-14T10:44:49.513Z,5.08
2022-12-14T10:45:49.075Z,5.12
2022-12-14T10:46:49.275Z,5.14
2022-12-14T10:47:49.308Z,5.18
2022-12-14T10:48:49.530Z,5.16
2022-12-14T10:49:49.667Z,5.18
2022-12-14T10:50:50.240Z,5.21
2022-12-14T10:51:50.013Z,5.19
2022-12-14T10:52:50.190Z,5.21
2022-12-14T10:53:50.420Z,5.19
2022-12-14T10:54:50.553Z,5.18
2022-12-14T10:55:50.735Z,5.24
2022-12-14T10:56:50.996Z,5.19
2022-12-14T10:57:51.105Z,5.21
2022-12-14T10:58:51.299Z,5.18
2022-12-14T11:00:05.669Z,5.24
2022-12-14T11:00:52.667Z,5.26
2022-12-14T11:01:51.934Z,5.26
2022-12-14T11:02:52.117Z,5.24
2022-12-14T11:03:52.150Z,5.23
2022-12-14T11:04:52.340Z,5.23
2022-12-14T11:05:52.499Z,5.26
2022-12-14T11:06:52.680Z,5.30
2022-12-14T11:07:52.855Z,5.30
2022-12-14T11:08:53.034Z,5.41
2022-12-14T11:09:53.236Z,5.36
2022-12-14T11:10:53.375Z,5.44
2022-12-14T11:11:53.656Z,5.39
2022-12-14T11:12:53.750Z,5.42
2022-12-14T11:13:53.898Z,5.42
2022-12-14T11:14:54.073Z,5.41
2022-12-14T11:15:54.280Z,5.41
2022-12-14T11:16:54.549Z,5.45
2022-12-14T11:17:54.745Z,5.44
2022-12-14T11:18:54.753Z,5.41
2022-12-14T11:19:54.933Z,5.39
2022-12-14T11:20:55.152Z,5.44
2022-12-14T11:21:55.295Z,5.42
2022-12-14T11:22:55.498Z,5.50
2022-12-14T11:23:55.665Z,5.50
2022-12-14T11:24:55.810Z,5.50
2022-12-14T11:25:56.024Z,5.51
2022-12-14T11:26:56.153Z,5.51
2022-12-14T11:27:56.345Z,5.52
2022-12-14T11:28:56.506Z,5.50
2022-12-14T11:29:56.699Z,5.48
2022-12-14T11:30:56.888Z,5.52
2022-12-14T11:31:57.025Z,5.55
2022-12-14T11:32:57.181Z,5.55
2022-12-14T11:33:57.359Z,5.58
2022-12-14T11:34:57.507Z,5.58
2022-12-14T11:35:57.697Z,5.60
2022-12-14T11:36:57.862Z,5.63
2022-12-14T11:37:58.016Z,5.70
2022-12-14T11:38:58.199Z,5.73
2022-12-14T11:39:58.373Z,5.69
2022-12-14T11:40:58.555Z,5.73
2022-12-14T11:41:58.762Z,5.77
2022-12-14T11:42:58.899Z,5.82
2022-12-14T11:43:59.105Z,5.82
2022-12-14T11:44:59.239Z,5.82
2022-12-14T11:45:59.476Z,5.82
2022-12-14T11:46:59.581Z,5.85
2022-12-14T11:47:59.779Z,5.86
2022-12-14T11:48:59.928Z,5.91
2022-12-14T11:50:00.129Z,5.91
2022-12-14T11:51:00.282Z,5.92
2022-12-14T11:52:00.459Z,5.92
2022-12-14T11:53:00.647Z,5.91
2022-12-14T11:54:00.824Z,5.91
2022-12-14T11:55:01.043Z,6.02
2022-12-14T11:56:01.180Z,5.96
2022-12-14T11:57:01.363Z,5.96
2022-12-14T11:58:01.547Z,6.00
2022-12-14T11:59:01.720Z,6.04
2022-12-14T12:00:01.921Z,6.04
2022-12-14T12:01:02.077Z,6.12
2022-12-14T12:02:02.414Z,6.14
2022-12-14T12:03:02.513Z,6.20
2022-12-14T12:04:02.613Z,6.25
2022-12-14T12:05:02.810Z,6.29
2022-12-14T12:06:02.959Z,6.31
2022-12-14T12:07:04.686Z,6.34
2022-12-14T12:08:03.315Z,6.37
2022-12-14T12:09:03.483Z,6.37
2022-12-14T12:10:03.681Z,6.40
2022-12-14T12:11:03.847Z,6.42
2022-12-14T12:12:04.007Z,6.42
2022-12-14T12:13:04.177Z,6.43
2022-12-14T12:14:04.382Z,6.45
2022-12-14T12:15:04.533Z,6.46
2022-12-14T12:16:04.754Z,6.46
2022-12-14T12:17:04.881Z,6.45
2022-12-14T12:18:05.042Z,6.46
2022-12-14T12:19:11.333Z,6.46
2022-12-14T12:20:06.390Z,6.43
2022-12-14T12:21:05.546Z,6.42
2022-12-14T12:22:05.746Z,6.43
2022-12-14T12:23:05.910Z,6.45
2022-12-14T12:24:06.065Z,6.40
2022-12-14T12:25:25.719Z,6.42
2022-12-14T12:26:08.425Z,6.42
2022-12-14T12:27:06.600Z,6.43
2022-12-14T12:28:06.785Z,6.39
2022-12-14T12:29:06.965Z,6.43
2022-12-14T12:30:07.150Z,6.37
2022-12-14T12:31:10.727Z,6.31
2022-12-14T12:32:07.507Z,6.40
2022-12-14T12:33:07.672Z,6.34
2022-12-14T12:34:07.826Z,6.29
2022-12-14T12:35:12.177Z,6.31
2022-12-14T12:36:08.197Z,6.34
2022-12-14T12:38:09.527Z,6.27
2022-12-14T12:39:08.687Z,6.21
2022-12-14T12:40:08.872Z,6.24
2022-12-14T12:41:09.106Z,6.21
2022-12-14T12:42:09.194Z,6.12
2022-12-14T12:43:09.354Z,6.14
2022-12-14T12:44:09.528Z,6.04
2022-12-14T12:45:09.684Z,6.03
2022-12-14T12:46:09.935Z,5.96
2022-12-14T12:47:32.168Z,5.94
2022-12-14T12:48:11.237Z,5.89
2022-12-14T12:49:10.394Z,5.86
2022-12-14T12:50:10.648Z,5.81
2022-12-14T12:51:10.730Z,5.79
2022-12-14T12:52:10.882Z,5.71
2022-12-14T12:53:11.047Z,5.70
2022-12-14T12:54:11.234Z,5.60
2022-12-14T12:55:11.380Z,5.55
2022-12-14T12:56:11.587Z,5.55
2022-12-14T12:57:11.772Z,5.47
2022-12-14T12:58:11.901Z,5.42
2022-12-14T12:59:12.049Z,5.33
2022-12-14T13:00:12.228Z,5.27
2022-12-14T13:01:12.533Z,5.26
2022-12-14T13:02:12.624Z,5.16
2022-12-14T13:03:12.842Z,5.08
2022-12-14T13:04:12.928Z,5.04
2022-12-14T13:05:44.518Z,5.01
2022-12-14T13:06:14.269Z,4.96
2022-12-14T13:07:13.439Z,4.87
2022-12-14T13:08:13.601Z,4.86